sensor_id;sensor_type;location;lat;lon;timestamp;temperature;humidity
51655;DHT22;37732;53.106;7.030;2022-09-09T00:01:11;14.00;99.90
51655;DHT22;37732;53.106;7.030;2022-09-09T00:09:16;14.00;99.90
51655;DHT22;37732;53.106;7.030;2022-09-09T00:14:54;14.00;99.90
51655;DHT22;37732;53.106;7.030;2022-09-09T00:20:14;13.90;99.90
51655;DHT22;37732;53.106;7.030;2022-09-09T00:22:55;13.90;99.90
51655;DHT22;37732;53.106;7.030;2022-09-09T00:25:34;13.90;99.90
51655;DHT22;37732;53.106;7.030;2022-09-09T00:28:04;13.80;99.90
51655;DHT22;37732;53.106;7.030;2022-09-09T00:30:37;13.90;99.90
51655;DHT22;37732;53.106;7.030;2022-09-09T00:33:11;13.90;99.90
51655;DHT22;37732;53.106;7.030;2022-09-09T00:35:44;14.60;99.90
51655;DHT22;37732;53.106;7.030;2022-09-09T00:41:09;13.80;99.90
51655;DHT22;37732;53.106;7.030;2022-09-09T00:43:38;13.90;99.90
51655;DHT22;37732;53.106;7.030;2022-09-09T00:51:57;13.80;99.90
51655;DHT22;37732;53.106;7.030;2022-09-09T00:54:38;13.80;99.90
51655;DHT22;37732;53.106;7.030;2022-09-09T00:57:34;13.80;99.90
51655;DHT22;37732;53.106;7.030;2022-09-09T01:03:19;13.70;99.90
51655;DHT22;37732;53.106;7.030;2022-09-09T01:11:04;13.60;99.90
51655;DHT22;37732;53.106;7.030;2022-09-09T01:13:34;13.60;99.90
51655;DHT22;37732;53.106;7.030;2022-09-09T01:16:04;13.50;99.90
51655;DHT22;37732;53.106;7.030;2022-09-09T01:18:52;13.60;99.90
51655;DHT22;37732;53.106;7.030;2022-09-09T01:24:05;13.60;99.90
51655;DHT22;37732;53.106;7.030;2022-09-09T01:26:37;13.60;99.90
51655;DHT22;37732;53.106;7.030;2022-09-09T01:29:09;13.60;99.90
51655;DHT22;37732;53.106;7.030;2022-09-09T01:31:38;13.90;99.90
51655;DHT22;37732;53.106;7.030;2022-09-09T01:34:15;13.50;99.90
51655;DHT22;37732;53.106;7.030;2022-09-09T01:36:59;13.60;99.90
51655;DHT22;37732;53.106;7.030;2022-09-09T01:39:27;13.50;99.90
51655;DHT22;37732;53.106;7.030;2022-09-09T01:41:53;12.70;99.90
51655;DHT22;37732;53.106;7.030;2022-09-09T01:44:21;13.50;99.90
51655;DHT22;37732;53.106;7.030;2022-09-09T01:46:47;13.30;99.90
51655;DHT22;37732;53.106;7.030;2022-09-09T01:49:13;13.40;99.90
51655;DHT22;37732;53.106;7.030;2022-09-09T01:51:40;13.40;99.90
51655;DHT22;37732;53.106;7.030;2022-09-09T01:54:07;13.30;99.90
51655;DHT22;37732;53.106;7.030;2022-09-09T02:02:35;13.30;99.90
51655;DHT22;37732;53.106;7.030;2022-09-09T02:05:11;13.30;99.90
51655;DHT22;37732;53.106;7.030;2022-09-09T02:07:43;13.30;99.90
51655;DHT22;37732;53.106;7.030;2022-09-09T02:10:32;13.50;99.90
51655;DHT22;37732;53.106;7.030;2022-09-09T02:13:16;13.40;99.90
51655;DHT22;37732;53.106;7.030;2022-09-09T02:15:47;13.40;99.90
51655;DHT22;37732;53.106;7.030;2022-09-09T02:18:30;13.40;99.90
51655;DHT22;37732;53.106;7.030;2022-09-09T02:20:58;13.40;99.90
51655;DHT22;37732;53.106;7.030;2022-09-09T02:23:25;13.40;99.90
51655;DHT22;37732;53.106;7.030;2022-09-09T02:25:51;13.40;99.90
51655;DHT22;37732;53.106;7.030;2022-09-09T02:28:19;13.50;99.90
51655;DHT22;37732;53.106;7.030;2022-09-09T02:30:48;13.40;99.90
51655;DHT22;37732;53.106;7.030;2022-09-09T02:33:23;13.30;99.90
51655;DHT22;37732;53.106;7.030;2022-09-09T02:35:51;13.40;99.90
51655;DHT22;37732;53.106;7.030;2022-09-09T02:38:19;13.20;99.90
51655;DHT22;37732;53.106;7.030;2022-09-09T02:40:46;13.40;99.90
51655;DHT22;37732;53.106;7.030;2022-09-09T02:43:14;13.50;99.90
51655;DHT22;37732;53.106;7.030;2022-09-09T02:45:48;13.40;99.90
51655;DHT22;37732;53.106;7.030;2022-09-09T02:48:34;13.50;99.90
51655;DHT22;37732;53.106;7.030;2022-09-09T02:51:14;13.50;99.90
51655;DHT22;37732;53.106;7.030;2022-09-09T02:54:04;13.60;99.90
51655;DHT22;37732;53.106;7.030;2022-09-09T02:56:39;13.60;99.90
51655;DHT22;37732;53.106;7.030;2022-09-09T02:59:05;13.60;99.90
51655;DHT22;37732;53.106;7.030;2022-09-09T03:01:31;13.70;99.90
51655;DHT22;37732;53.106;7.030;2022-09-09T03:03:57;14.30;99.90
51655;DHT22;37732;53.106;7.030;2022-09-09T03:06:23;13.70;99.90
51655;DHT22;37732;53.106;7.030;2022-09-09T03:08:48;13.80;99.90
51655;DHT22;37732;53.106;7.030;2022-09-09T03:11:16;13.80;99.90
51655;DHT22;37732;53.106;7.030;2022-09-09T03:13:42;13.90;99.90
51655;DHT22;37732;53.106;7.030;2022-09-09T03:16:07;13.90;99.90
51655;DHT22;37732;53.106;7.030;2022-09-09T03:18:33;13.90;99.90
51655;DHT22;37732;53.106;7.030;2022-09-09T03:21:00;13.90;99.90
51655;DHT22;37732;53.106;7.030;2022-09-09T03:23:26;14.30;99.90
51655;DHT22;37732;53.106;7.030;2022-09-09T03:25:52;13.80;99.90
51655;DHT22;37732;53.106;7.030;2022-09-09T03:28:20;14.00;99.90
51655;DHT22;37732;53.106;7.030;2022-09-09T03:30:46;14.00;99.90
51655;DHT22;37732;53.106;7.030;2022-09-09T03:33:11;14.00;99.90
51655;DHT22;37732;53.106;7.030;2022-09-09T03:35:38;14.10;99.90
51655;DHT22;37732;53.106;7.030;2022-09-09T03:38:04;14.20;99.90
51655;DHT22;37732;53.106;7.030;2022-09-09T03:40:30;14.10;99.90
51655;DHT22;37732;53.106;7.030;2022-09-09T03:42:56;14.30;99.90
51655;DHT22;37732;53.106;7.030;2022-09-09T03:45:22;14.70;99.90
51655;DHT22;37732;53.106;7.030;2022-09-09T03:47:47;14.20;99.90
51655;DHT22;37732;53.106;7.030;2022-09-09T03:50:13;14.20;99.90
51655;DHT22;37732;53.106;7.030;2022-09-09T03:52:40;14.90;99.90
51655;DHT22;37732;53.106;7.030;2022-09-09T03:55:06;14.20;99.90
51655;DHT22;37732;53.106;7.030;2022-09-09T03:57:33;14.30;99.90
51655;DHT22;37732;53.106;7.030;2022-09-09T04:00:04;14.40;99.90
51655;DHT22;37732;53.106;7.030;2022-09-09T04:02:30;14.30;99.90
51655;DHT22;37732;53.106;7.030;2022-09-09T04:04:56;14.30;99.90
51655;DHT22;37732;53.106;7.030;2022-09-09T04:07:22;14.40;99.90
51655;DHT22;37732;53.106;7.030;2022-09-09T04:09:47;14.40;99.90
51655;DHT22;37732;53.106;7.030;2022-09-09T04:12:13;14.40;99.90
51655;DHT22;37732;53.106;7.030;2022-09-09T04:14:45;14.40;99.90
51655;DHT22;37732;53.106;7.030;2022-09-09T04:17:11;14.40;99.90
51655;DHT22;37732;53.106;7.030;2022-09-09T04:19:36;14.40;99.90
51655;DHT22;37732;53.106;7.030;2022-09-09T04:22:02;14.40;99.90
51655;DHT22;37732;53.106;7.030;2022-09-09T04:24:30;14.40;99.90
51655;DHT22;37732;53.106;7.030;2022-09-09T04:26:59;14.50;99.90
51655;DHT22;37732;53.106;7.030;2022-09-09T04:29:27;14.40;99.90
51655;DHT22;37732;53.106;7.030;2022-09-09T04:31:56;14.40;99.90
51655;DHT22;37732;53.106;7.030;2022-09-09T04:34:21;14.40;99.90
51655;DHT22;37732;53.106;7.030;2022-09-09T04:36:47;14.40;99.90
51655;DHT22;37732;53.106;7.030;2022-09-09T04:39:13;14.40;99.90
51655;DHT22;37732;53.106;7.030;2022-09-09T04:41:39;14.40;99.90
51655;DHT22;37732;53.106;7.030;2022-09-09T04:44:05;14.40;99.90
51655;DHT22;37732;53.106;7.030;2022-09-09T04:46:31;14.40;99.90
51655;DHT22;37732;53.106;7.030;2022-09-09T04:48:56;15.00;99.90
51655;DHT22;37732;53.106;7.030;2022-09-09T04:51:22;14.40;99.90
51655;DHT22;37732;53.106;7.030;2022-09-09T04:53:48;14.40;99.90
51655;DHT22;37732;53.106;7.030;2022-09-09T04:56:16;14.90;99.90
51655;DHT22;37732;53.106;7.030;2022-09-09T04:58:42;14.40;99.90
51655;DHT22;37732;53.106;7.030;2022-09-09T05:01:19;14.40;99.90
51655;DHT22;37732;53.106;7.030;2022-09-09T05:03:46;14.40;99.90
51655;DHT22;37732;53.106;7.030;2022-09-09T05:06:16;14.40;99.90
51655;DHT22;37732;53.106;7.030;2022-09-09T05:08:43;14.40;99.90
51655;DHT22;37732;53.106;7.030;2022-09-09T05:11:25;14.40;99.90
51655;DHT22;37732;53.106;7.030;2022-09-09T05:13:53;14.40;99.90
51655;DHT22;37732;53.106;7.030;2022-09-09T05:16:20;14.40;99.90
51655;DHT22;37732;53.106;7.030;2022-09-09T05:18:46;14.40;99.90
51655;DHT22;37732;53.106;7.030;2022-09-09T05:21:13;14.70;99.90
51655;DHT22;37732;53.106;7.030;2022-09-09T05:23:39;14.40;99.90
51655;DHT22;37732;53.106;7.030;2022-09-09T05:26:06;14.40;99.90
51655;DHT22;37732;53.106;7.030;2022-09-09T05:28:34;14.30;99.90
51655;DHT22;37732;53.106;7.030;2022-09-09T05:31:03;14.40;99.90
51655;DHT22;37732;53.106;7.030;2022-09-09T05:33:31;14.40;99.90
51655;DHT22;37732;53.106;7.030;2022-09-09T05:36:05;14.40;99.90
51655;DHT22;37732;53.106;7.030;2022-09-09T05:38:31;14.40;99.90
51655;DHT22;37732;53.106;7.030;2022-09-09T05:40:59;14.40;99.90
51655;DHT22;37732;53.106;7.030;2022-09-09T05:43:26;14.30;99.90
51655;DHT22;37732;53.106;7.030;2022-09-09T05:46:03;14.40;99.90
51655;DHT22;37732;53.106;7.030;2022-09-09T05:48:37;14.40;99.90
51655;DHT22;37732;53.106;7.030;2022-09-09T05:51:05;14.40;99.90
51655;DHT22;37732;53.106;7.030;2022-09-09T05:53:34;14.40;99.90
51655;DHT22;37732;53.106;7.030;2022-09-09T05:56:05;14.40;99.90
51655;DHT22;37732;53.106;7.030;2022-09-09T05:58:34;14.40;99.90
51655;DHT22;37732;53.106;7.030;2022-09-09T06:01:21;14.40;99.90
51655;DHT22;37732;53.106;7.030;2022-09-09T06:03:48;14.40;99.90
51655;DHT22;37732;53.106;7.030;2022-09-09T06:06:16;14.40;99.90
51655;DHT22;37732;53.106;7.030;2022-09-09T06:08:44;14.40;99.90
51655;DHT22;37732;53.106;7.030;2022-09-09T06:11:14;14.40;99.90
51655;DHT22;37732;53.106;7.030;2022-09-09T06:13:40;14.40;99.90
51655;DHT22;37732;53.106;7.030;2022-09-09T06:16:15;14.40;99.90
51655;DHT22;37732;53.106;7.030;2022-09-09T06:18:43;14.50;99.90
51655;DHT22;37732;53.106;7.030;2022-09-09T06:21:17;15.70;99.90
51655;DHT22;37732;53.106;7.030;2022-09-09T06:23:44;14.50;99.90
51655;DHT22;37732;53.106;7.030;2022-09-09T06:26:21;14.50;99.90
51655;DHT22;37732;53.106;7.030;2022-09-09T06:28:49;14.60;99.90
51655;DHT22;37732;53.106;7.030;2022-09-09T06:31:38;14.50;99.90
51655;DHT22;37732;53.106;7.030;2022-09-09T06:34:05;14.50;99.90
51655;DHT22;37732;53.106;7.030;2022-09-09T06:36:34;14.30;99.90
51655;DHT22;37732;53.106;7.030;2022-09-09T06:39:00;14.60;99.90
51655;DHT22;37732;53.106;7.030;2022-09-09T06:41:28;14.70;99.90
51655;DHT22;37732;53.106;7.030;2022-09-09T06:43:54;14.70;99.90
51655;DHT22;37732;53.106;7.030;2022-09-09T06:46:25;14.80;99.90
51655;DHT22;37732;53.106;7.030;2022-09-09T06:48:58;14.80;99.90
51655;DHT22;37732;53.106;7.030;2022-09-09T06:51:31;14.90;99.90
51655;DHT22;37732;53.106;7.030;2022-09-09T06:53:59;14.90;99.90
51655;DHT22;37732;53.106;7.030;2022-09-09T06:56:33;15.10;99.90
51655;DHT22;37732;53.106;7.030;2022-09-09T06:59:04;15.20;99.90
51655;DHT22;37732;53.106;7.030;2022-09-09T07:01:38;15.30;99.90
51655;DHT22;37732;53.106;7.030;2022-09-09T07:04:07;15.40;99.90
51655;DHT22;37732;53.106;7.030;2022-09-09T07:06:42;15.50;99.90
51655;DHT22;37732;53.106;7.030;2022-09-09T07:09:20;15.60;99.90
51655;DHT22;37732;53.106;7.030;2022-09-09T07:11:49;15.60;99.90
51655;DHT22;37732;53.106;7.030;2022-09-09T07:14:37;15.70;99.90
51655;DHT22;37732;53.106;7.030;2022-09-09T07:17:03;15.90;99.90
51655;DHT22;37732;53.106;7.030;2022-09-09T07:19:28;15.90;99.90
51655;DHT22;37732;53.106;7.030;2022-09-09T07:21:54;15.90;99.90
51655;DHT22;37732;53.106;7.030;2022-09-09T07:24:19;16.00;99.90
51655;DHT22;37732;53.106;7.030;2022-09-09T07:26:45;16.00;99.90
51655;DHT22;37732;53.106;7.030;2022-09-09T07:29:11;16.00;99.90
51655;DHT22;37732;53.106;7.030;2022-09-09T07:31:39;16.00;99.90
51655;DHT22;37732;53.106;7.030;2022-09-09T07:34:05;15.40;99.90
51655;DHT22;37732;53.106;7.030;2022-09-09T07:36:33;16.20;99.90
51655;DHT22;37732;53.106;7.030;2022-09-09T07:39:07;16.30;99.90
51655;DHT22;37732;53.106;7.030;2022-09-09T07:41:39;16.40;99.90
51655;DHT22;37732;53.106;7.030;2022-09-09T07:44:16;16.50;99.90
51655;DHT22;37732;53.106;7.030;2022-09-09T07:46:43;16.50;99.90
51655;DHT22;37732;53.106;7.030;2022-09-09T07:49:10;16.50;99.90
51655;DHT22;37732;53.106;7.030;2022-09-09T07:51:42;16.30;99.90
51655;DHT22;37732;53.106;7.030;2022-09-09T07:54:10;16.70;99.90
51655;DHT22;37732;53.106;7.030;2022-09-09T07:56:37;16.70;99.90
51655;DHT22;37732;53.106;7.030;2022-09-09T07:59:03;16.70;99.90
51655;DHT22;37732;53.106;7.030;2022-09-09T08:01:34;16.70;99.90
51655;DHT22;37732;53.106;7.030;2022-09-09T08:04:13;16.70;99.90
51655;DHT22;37732;53.106;7.030;2022-09-09T08:06:51;16.80;99.90
51655;DHT22;37732;53.106;7.030;2022-09-09T08:09:18;16.80;99.90
51655;DHT22;37732;53.106;7.030;2022-09-09T08:11:44;16.90;99.90
51655;DHT22;37732;53.106;7.030;2022-09-09T08:14:11;17.10;99.90
51655;DHT22;37732;53.106;7.030;2022-09-09T08:16:39;17.20;99.90
51655;DHT22;37732;53.106;7.030;2022-09-09T08:19:05;17.40;99.90
51655;DHT22;37732;53.106;7.030;2022-09-09T08:21:33;17.70;99.90
51655;DHT22;37732;53.106;7.030;2022-09-09T08:24:01;18.00;99.90
51655;DHT22;37732;53.106;7.030;2022-09-09T08:26:29;18.20;99.90
51655;DHT22;37732;53.106;7.030;2022-09-09T08:28:58;18.30;99.90
51655;DHT22;37732;53.106;7.030;2022-09-09T08:31:35;18.30;99.90
51655;DHT22;37732;53.106;7.030;2022-09-09T08:34:03;18.30;99.90
51655;DHT22;37732;53.106;7.030;2022-09-09T08:36:31;18.30;99.90
51655;DHT22;37732;53.106;7.030;2022-09-09T08:38:59;18.30;99.90
51655;DHT22;37732;53.106;7.030;2022-09-09T08:47:04;18.60;99.90
51655;DHT22;37732;53.106;7.030;2022-09-09T08:50:13;18.70;99.90
51655;DHT22;37732;53.106;7.030;2022-09-09T08:55:50;18.90;99.90
51655;DHT22;37732;53.106;7.030;2022-09-09T08:58:26;18.90;99.90
51655;DHT22;37732;53.106;7.030;2022-09-09T09:11:51;19.10;99.90
51655;DHT22;37732;53.106;7.030;2022-09-09T09:14:21;19.20;99.90
51655;DHT22;37732;53.106;7.030;2022-09-09T09:17:03;19.30;99.90
51655;DHT22;37732;53.106;7.030;2022-09-09T09:19:33;19.30;99.90
51655;DHT22;37732;53.106;7.030;2022-09-09T09:30:19;19.10;99.90
51655;DHT22;37732;53.106;7.030;2022-09-09T09:35:58;19.00;99.90
51655;DHT22;37732;53.106;7.030;2022-09-09T09:38:26;19.00;99.90
51655;DHT22;37732;53.106;7.030;2022-09-09T09:40:58;18.90;99.90
51655;DHT22;37732;53.106;7.030;2022-09-09T09:43:28;18.90;99.90
51655;DHT22;37732;53.106;7.030;2022-09-09T09:45:54;18.80;99.90
51655;DHT22;37732;53.106;7.030;2022-09-09T09:48:21;18.90;99.90
51655;DHT22;37732;53.106;7.030;2022-09-09T09:51:01;18.90;99.90
51655;DHT22;37732;53.106;7.030;2022-09-09T09:53:32;19.10;99.90
51655;DHT22;37732;53.106;7.030;2022-09-09T09:56:06;19.40;99.90
51655;DHT22;37732;53.106;7.030;2022-09-09T09:58:33;19.60;99.90
51655;DHT22;37732;53.106;7.030;2022-09-09T10:01:02;19.60;99.90
51655;DHT22;37732;53.106;7.030;2022-09-09T10:03:33;19.60;99.90
51655;DHT22;37732;53.106;7.030;2022-09-09T10:06:03;19.50;99.90
51655;DHT22;37732;53.106;7.030;2022-09-09T10:08:29;19.50;99.90
51655;DHT22;37732;53.106;7.030;2022-09-09T10:11:21;19.70;99.90
51655;DHT22;37732;53.106;7.030;2022-09-09T10:14:04;20.00;99.90
51655;DHT22;37732;53.106;7.030;2022-09-09T10:19:07;20.70;99.90
51655;DHT22;37732;53.106;7.030;2022-09-09T10:24:46;20.50;99.90
51655;DHT22;37732;53.106;7.030;2022-09-09T10:27:38;20.40;99.90
51655;DHT22;37732;53.106;7.030;2022-09-09T10:30:11;20.50;99.90
51655;DHT22;37732;53.106;7.030;2022-09-09T10:32:49;20.50;99.90
51655;DHT22;37732;53.106;7.030;2022-09-09T10:35:30;20.50;99.90
51655;DHT22;37732;53.106;7.030;2022-09-09T10:51:23;21.40;99.90
51655;DHT22;37732;53.106;7.030;2022-09-09T10:56:20;21.30;99.90
51655;DHT22;37732;53.106;7.030;2022-09-09T10:59:05;21.30;99.90
51655;DHT22;37732;53.106;7.030;2022-09-09T11:01:46;21.20;99.90
51655;DHT22;37732;53.106;7.030;2022-09-09T11:04:27;21.00;99.90
51655;DHT22;37732;53.106;7.030;2022-09-09T11:06:56;20.70;99.90
51655;DHT22;37732;53.106;7.030;2022-09-09T11:09:28;20.60;99.90
51655;DHT22;37732;53.106;7.030;2022-09-09T11:11:58;20.50;99.90
51655;DHT22;37732;53.106;7.030;2022-09-09T11:15:01;20.50;99.90
51655;DHT22;37732;53.106;7.030;2022-09-09T11:17:52;20.60;99.90
51655;DHT22;37732;53.106;7.030;2022-09-09T11:20:20;21.00;99.90
51655;DHT22;37732;53.106;7.030;2022-09-09T11:23:09;21.20;99.90
51655;DHT22;37732;53.106;7.030;2022-09-09T11:25:43;21.50;99.90
51655;DHT22;37732;53.106;7.030;2022-09-09T11:33:58;21.60;99.90
51655;DHT22;37732;53.106;7.030;2022-09-09T11:36:48;21.40;99.90
51655;DHT22;37732;53.106;7.030;2022-09-09T11:42:17;21.80;99.90
51655;DHT22;37732;53.106;7.030;2022-09-09T11:44:44;21.70;99.90
51655;DHT22;37732;53.106;7.030;2022-09-09T11:47:23;21.60;99.90
51655;DHT22;37732;53.106;7.030;2022-09-09T11:49:51;21.60;99.90
51655;DHT22;37732;53.106;7.030;2022-09-09T11:52:24;21.70;99.90
51655;DHT22;37732;53.106;7.030;2022-09-09T11:54:51;21.70;99.90
51655;DHT22;37732;53.106;7.030;2022-09-09T11:57:32;21.70;99.90
51655;DHT22;37732;53.106;7.030;2022-09-09T11:59:59;21.60;99.90
51655;DHT22;37732;53.106;7.030;2022-09-09T12:02:27;21.50;99.90
51655;DHT22;37732;53.106;7.030;2022-09-09T12:05:05;21.50;99.90
51655;DHT22;37732;53.106;7.030;2022-09-09T12:07:38;21.90;99.90
51655;DHT22;37732;53.106;7.030;2022-09-09T12:12:35;22.30;99.90
51655;DHT22;37732;53.106;7.030;2022-09-09T12:15:18;22.40;99.90
51655;DHT22;37732;53.106;7.030;2022-09-09T12:17:50;22.40;99.90
51655;DHT22;37732;53.106;7.030;2022-09-09T12:20:20;22.30;99.90
51655;DHT22;37732;53.106;7.030;2022-09-09T12:33:12;22.10;99.90
51655;DHT22;37732;53.106;7.030;2022-09-09T12:35:39;22.00;99.90
51655;DHT22;37732;53.106;7.030;2022-09-09T12:38:14;21.90;99.90
51655;DHT22;37732;53.106;7.030;2022-09-09T12:40:57;22.00;99.90
51655;DHT22;37732;53.106;7.030;2022-09-09T12:43:24;22.10;99.90
51655;DHT22;37732;53.106;7.030;2022-09-09T12:45:55;22.00;99.90
51655;DHT22;37732;53.106;7.030;2022-09-09T12:48:29;22.00;99.90
51655;DHT22;37732;53.106;7.030;2022-09-09T12:50:57;22.00;99.90
51655;DHT22;37732;53.106;7.030;2022-09-09T12:53:26;22.10;99.90
51655;DHT22;37732;53.106;7.030;2022-09-09T12:56:21;22.10;99.90
51655;DHT22;37732;53.106;7.030;2022-09-09T12:58:50;22.10;99.90
51655;DHT22;37732;53.106;7.030;2022-09-09T13:01:31;22.00;99.90
51655;DHT22;37732;53.106;7.030;2022-09-09T13:03:59;21.90;99.90
51655;DHT22;37732;53.106;7.030;2022-09-09T13:06:29;22.00;99.90
51655;DHT22;37732;53.106;7.030;2022-09-09T13:08:57;22.30;99.90
51655;DHT22;37732;53.106;7.030;2022-09-09T13:11:29;22.70;99.90
51655;DHT22;37732;53.106;7.030;2022-09-09T13:13:57;22.90;99.90
51655;DHT22;37732;53.106;7.030;2022-09-09T13:16:26;23.00;99.90
51655;DHT22;37732;53.106;7.030;2022-09-09T13:18:58;23.20;99.90
51655;DHT22;37732;53.106;7.030;2022-09-09T13:21:50;23.20;99.90
51655;DHT22;37732;53.106;7.030;2022-09-09T13:24:32;23.10;99.10
51655;DHT22;37732;53.106;7.030;2022-09-09T13:27:03;23.00;98.10
51655;DHT22;37732;53.106;7.030;2022-09-09T13:29:31;23.00;99.90
51655;DHT22;37732;53.106;7.030;2022-09-09T13:32:15;23.00;99.90
51655;DHT22;37732;53.106;7.030;2022-09-09T13:34:54;23.00;99.90
51655;DHT22;37732;53.106;7.030;2022-09-09T13:37:36;22.80;99.90
51655;DHT22;37732;53.106;7.030;2022-09-09T13:40:03;22.60;99.90
51655;DHT22;37732;53.106;7.030;2022-09-09T13:42:33;22.40;99.90
51655;DHT22;37732;53.106;7.030;2022-09-09T13:45:00;22.30;99.90
51655;DHT22;37732;53.106;7.030;2022-09-09T13:49:54;22.00;99.90
51655;DHT22;37732;53.106;7.030;2022-09-09T13:52:20;21.80;99.90
51655;DHT22;37732;53.106;7.030;2022-09-09T13:54:51;21.60;99.90
51655;DHT22;37732;53.106;7.030;2022-09-09T13:57:23;21.30;99.90
51655;DHT22;37732;53.106;7.030;2022-09-09T13:59:51;20.80;99.90
51655;DHT22;37732;53.106;7.030;2022-09-09T14:02:17;20.40;99.90
51655;DHT22;37732;53.106;7.030;2022-09-09T14:04:43;20.20;99.90
51655;DHT22;37732;53.106;7.030;2022-09-09T14:07:14;19.90;99.90
51655;DHT22;37732;53.106;7.030;2022-09-09T14:09:40;19.80;99.90
51655;DHT22;37732;53.106;7.030;2022-09-09T14:12:12;19.70;99.90
51655;DHT22;37732;53.106;7.030;2022-09-09T14:14:40;19.50;99.90
51655;DHT22;37732;53.106;7.030;2022-09-09T14:17:07;19.50;99.90
51655;DHT22;37732;53.106;7.030;2022-09-09T14:19:33;19.40;99.90
51655;DHT22;37732;53.106;7.030;2022-09-09T14:21:59;19.30;99.90
51655;DHT22;37732;53.106;7.030;2022-09-09T14:24:24;19.10;99.90
51655;DHT22;37732;53.106;7.030;2022-09-09T14:26:50;19.10;99.90
51655;DHT22;37732;53.106;7.030;2022-09-09T14:29:16;19.20;99.90
51655;DHT22;37732;53.106;7.030;2022-09-09T14:31:42;19.20;99.90
51655;DHT22;37732;53.106;7.030;2022-09-09T14:34:07;19.30;99.90
51655;DHT22;37732;53.106;7.030;2022-09-09T14:36:35;19.30;99.90
51655;DHT22;37732;53.106;7.030;2022-09-09T14:39:01;19.20;99.90
51655;DHT22;37732;53.106;7.030;2022-09-09T14:41:27;19.20;99.90
51655;DHT22;37732;53.106;7.030;2022-09-09T14:43:54;19.40;99.90
51655;DHT22;37732;53.106;7.030;2022-09-09T14:46:20;19.20;99.90
51655;DHT22;37732;53.106;7.030;2022-09-09T14:48:46;19.20;99.90
51655;DHT22;37732;53.106;7.030;2022-09-09T14:51:20;19.20;99.90
51655;DHT22;37732;53.106;7.030;2022-09-09T14:53:48;19.40;99.90
51655;DHT22;37732;53.106;7.030;2022-09-09T14:56:16;19.50;99.90
51655;DHT22;37732;53.106;7.030;2022-09-09T14:58:43;19.60;99.90
51655;DHT22;37732;53.106;7.030;2022-09-09T15:01:11;19.70;99.90
51655;DHT22;37732;53.106;7.030;2022-09-09T15:03:40;19.80;99.90
51655;DHT22;37732;53.106;7.030;2022-09-09T15:06:09;19.80;99.90
51655;DHT22;37732;53.106;7.030;2022-09-09T15:08:36;19.80;99.90
51655;DHT22;37732;53.106;7.030;2022-09-09T15:11:03;19.70;99.90
51655;DHT22;37732;53.106;7.030;2022-09-09T15:13:30;19.70;99.90
51655;DHT22;37732;53.106;7.030;2022-09-09T15:15:55;19.40;99.90
51655;DHT22;37732;53.106;7.030;2022-09-09T15:18:23;19.30;99.90
51655;DHT22;37732;53.106;7.030;2022-09-09T15:20:49;19.20;99.90
51655;DHT22;37732;53.106;7.030;2022-09-09T15:23:15;19.10;99.90
51655;DHT22;37732;53.106;7.030;2022-09-09T15:25:55;19.00;99.90
51655;DHT22;37732;53.106;7.030;2022-09-09T15:28:22;18.90;99.90
51655;DHT22;37732;53.106;7.030;2022-09-09T15:30:52;18.90;99.90
51655;DHT22;37732;53.106;7.030;2022-09-09T15:33:25;18.80;99.90
51655;DHT22;37732;53.106;7.030;2022-09-09T15:35:51;18.80;99.90
51655;DHT22;37732;53.106;7.030;2022-09-09T15:38:17;18.80;99.90
51655;DHT22;37732;53.106;7.030;2022-09-09T15:40:43;19.10;99.90
51655;DHT22;37732;53.106;7.030;2022-09-09T15:43:12;18.70;99.90
51655;DHT22;37732;53.106;7.030;2022-09-09T15:45:39;18.70;99.90
51655;DHT22;37732;53.106;7.030;2022-09-09T15:48:05;18.70;99.90
51655;DHT22;37732;53.106;7.030;2022-09-09T15:50:30;18.80;99.90
51655;DHT22;37732;53.106;7.030;2022-09-09T15:52:57;18.80;99.90
51655;DHT22;37732;53.106;7.030;2022-09-09T15:55:23;19.00;99.90
51655;DHT22;37732;53.106;7.030;2022-09-09T15:57:52;19.10;99.90
51655;DHT22;37732;53.106;7.030;2022-09-09T16:00:19;19.10;99.90
51655;DHT22;37732;53.106;7.030;2022-09-09T16:02:46;19.20;99.90
51655;DHT22;37732;53.106;7.030;2022-09-09T16:05:12;19.20;99.90
51655;DHT22;37732;53.106;7.030;2022-09-09T16:07:38;19.20;99.90
51655;DHT22;37732;53.106;7.030;2022-09-09T16:10:04;19.20;99.90
51655;DHT22;37732;53.106;7.030;2022-09-09T16:12:31;19.20;99.90
51655;DHT22;37732;53.106;7.030;2022-09-09T16:14:57;19.20;99.90
51655;DHT22;37732;53.106;7.030;2022-09-09T16:17:22;19.20;99.90
51655;DHT22;37732;53.106;7.030;2022-09-09T16:19:48;19.20;99.90
51655;DHT22;37732;53.106;7.030;2022-09-09T16:22:13;19.20;99.90
51655;DHT22;37732;53.106;7.030;2022-09-09T16:24:40;19.30;99.90
51655;DHT22;37732;53.106;7.030;2022-09-09T16:27:06;19.30;99.90
51655;DHT22;37732;53.106;7.030;2022-09-09T16:29:32;19.20;99.90
51655;DHT22;37732;53.106;7.030;2022-09-09T16:31:58;19.20;99.90
51655;DHT22;37732;53.106;7.030;2022-09-09T16:34:26;19.20;99.90
51655;DHT22;37732;53.106;7.030;2022-09-09T16:36:51;19.10;99.90
51655;DHT22;37732;53.106;7.030;2022-09-09T16:39:19;19.10;99.90
51655;DHT22;37732;53.106;7.030;2022-09-09T16:41:46;19.00;99.90
51655;DHT22;37732;53.106;7.030;2022-09-09T16:44:14;19.00;99.90
51655;DHT22;37732;53.106;7.030;2022-09-09T16:46:42;18.90;99.90
51655;DHT22;37732;53.106;7.030;2022-09-09T16:49:10;18.80;99.90
51655;DHT22;37732;53.106;7.030;2022-09-09T16:51:38;18.70;99.90
51655;DHT22;37732;53.106;7.030;2022-09-09T16:54:06;18.70;99.90
51655;DHT22;37732;53.106;7.030;2022-09-09T16:56:34;18.60;99.90
51655;DHT22;37732;53.106;7.030;2022-09-09T16:59:07;18.60;99.90
51655;DHT22;37732;53.106;7.030;2022-09-09T17:01:37;18.50;99.90
51655;DHT22;37732;53.106;7.030;2022-09-09T17:04:05;18.50;99.90
51655;DHT22;37732;53.106;7.030;2022-09-09T17:06:33;18.40;99.90
51655;DHT22;37732;53.106;7.030;2022-09-09T17:09:09;18.40;99.90
51655;DHT22;37732;53.106;7.030;2022-09-09T17:11:37;18.30;99.90
51655;DHT22;37732;53.106;7.030;2022-09-09T17:14:03;18.30;99.90
51655;DHT22;37732;53.106;7.030;2022-09-09T17:16:32;18.30;99.90
51655;DHT22;37732;53.106;7.030;2022-09-09T17:18:59;18.20;99.90
51655;DHT22;37732;53.106;7.030;2022-09-09T17:21:27;18.20;99.90
51655;DHT22;37732;53.106;7.030;2022-09-09T17:23:54;18.20;99.90
51655;DHT22;37732;53.106;7.030;2022-09-09T17:26:22;18.20;99.90
51655;DHT22;37732;53.106;7.030;2022-09-09T17:28:48;18.10;99.90
51655;DHT22;37732;53.106;7.030;2022-09-09T17:31:17;18.10;99.90
51655;DHT22;37732;53.106;7.030;2022-09-09T17:33:45;18.00;99.90
51655;DHT22;37732;53.106;7.030;2022-09-09T17:36:14;18.00;99.90
51655;DHT22;37732;53.106;7.030;2022-09-09T17:38:40;17.90;99.90
51655;DHT22;37732;53.106;7.030;2022-09-09T17:41:10;17.80;99.90
51655;DHT22;37732;53.106;7.030;2022-09-09T17:43:37;17.80;99.90